KLMO

Vance Brand Airport

Longmont, Colorado, USA
METAR KLMO 220035Z AUTO 03003KT 10SM CLR M07/M12 A3016 RMK AO2 T10721120
Observed Flight Rules
Feb-22 @ 00:35 UTC (4 hours ago) Visual Flight Rules
Wind Visibility Clouds
30° at 3 knots 10 miles
  • Clear skies
Temperatures Readings
Current -7°C / 19°F
Dewpoint -12°C / 10°F
Humidity 68%
Altimeter 30.16" Hg
Pressure 1021 hPa
Elevation 1541
METAR KLMO 220035Z AUTO 03003KT 10SM CLR M07/M12 A3016 RMK AO2 T10721120
Observed Flight Rules
Feb-22 @ 00:35 UTC
(4 hours ago)
VFR
Wind Visibility
30° at 3 knots 10 miles
Clouds
  • Clear skies
Temperature Dewpoint
-7°C / 19°F -12°C / 10°F
Humidity Altimeter Pressure
68% 30.16" Hg 1021 hPa